Portada
METAR-TAF:

METAR-TAF

Aeroports :

Port Vila, Éfaté, Vanuatu

latitud: 17-42S, longitud: 168-18E, altitud: 20 m

Observació

L'informe es va fer fa 18 minuts, a les 14:00 UTC
Vent 2 kt del Est/Sud-Est
Temperatura 19°C
Humitat 94%
Pressió 1015 hPa
Visibilitat 10 km o més
Núvols disperses a una alçada de 2000 ft
Cel ennuvolat a una alçada de 4000 ft

METAR: NVVV 081400Z 11002KT 9999 SCT020 BKN040 19/18 Q1015

Hora: 01:18 (14:18 UTC)

Pronòstic

L'informe es va fer fa 4 hores i 18 minuts, a les 10:00 UTC
Pronòstic vàlid del 08 a les 12 UTC al 09 a les 12 UTC
Vent 4 kt amb direcció variable
Visibilitat 10 km o més
Núvols disperses a una alçada de 2000 ft

TAF: NVVV 081000Z 0812/0912 VRB04KT 9999 SCT020

Observacions i pronòstics meteorològics de més de 4000 aeroports (METAR i TAF).

Les estacions disponibles són els punts grocs i vermells al mapa.

Posi el ratolí al punt desitjat per veure el nom de l'estació.

Feu clic per veure les observacions i els pronòstics meteorològics.

Per canviar el mapa: feu clic els botons verds amb una creu de color negre per apropar; al botó verd amb un guió per allunyar la imatge; o en les fletxes verdes per a mapes adjacents.


METAR-TAF: